Time;durP1;ratioP1;P1;durP2;ratioP2;P2;SDS_P1;SDS_P2;PMS_P1;PMS_P2;Temp;Humidity;BMP_temperature;BMP_pressure;BME280_temperature;BME280_humidity;BME280_pressure;Samples;Min_cycle;Max_cycle;Signal;HPM_P1;HPM_P2
2023/04/06 00:02:08;;;;;;;13.02;8.52;;;-1.50;99.90;;;;;;5054852;28;20099;-54
2023/04/06 00:04:33;;;;;;;10.15;7.43;;;-1.50;99.90;;;;;;5054930;28;20468;-52
2023/04/06 00:06:59;;;;;;;13.02;8.20;;;-1.50;99.90;;;;;;5054475;28;20112;-53
2023/04/06 00:09:25;;;;;;;12.90;8.25;;;-1.60;99.90;;;;;;5054846;28;20032;-53
2023/04/06 00:11:50;;;;;;;14.30;9.80;;;-1.60;99.90;;;;;;5054822;28;20094;-53
2023/04/06 00:14:17;;;;;;;12.88;8.38;;;-1.70;99.90;;;;;;5054454;28;20480;-54
2023/04/06 00:16:43;;;;;;;11.68;7.57;;;-1.70;99.90;;;;;;5054687;28;20465;-52
2023/04/06 00:19:08;;;;;;;12.88;8.93;;;-1.80;99.90;;;;;;5054488;28;20033;-51
2023/04/06 00:21:34;;;;;;;9.73;8.32;;;-1.70;99.90;;;;;;5054378;28;20051;-56
2023/04/06 00:24:00;;;;;;;17.00;8.30;;;-1.80;99.90;;;;;;5054402;28;20071;-54
2023/04/06 00:26:25;;;;;;;11.10;7.90;;;-1.90;99.90;;;;;;5054505;28;20035;-53
2023/04/06 00:28:52;;;;;;;13.98;8.68;;;-1.90;99.90;;;;;;5054576;28;20024;-55
2023/04/06 00:31:18;;;;;;;18.60;8.38;;;-2.10;99.90;;;;;;5054444;28;20029;-54
2023/04/06 00:33:43;;;;;;;11.95;8.20;;;-2.10;99.90;;;;;;5053201;28;20025;-54
2023/04/06 00:39:31;;;;;;;11.18;7.72;;;-2.00;99.90;;;;;;5054189;28;20411;-54
2023/04/06 00:41:57;;;;;;;11.52;9.20;;;-2.00;99.90;;;;;;5054087;28;20029;-52
2023/04/06 00:44:23;;;;;;;9.32;8.20;;;-2.00;99.90;;;;;;5054120;28;20095;-53
2023/04/06 00:46:49;;;;;;;16.77;7.57;;;-2.00;99.90;;;;;;5054048;28;20091;-52
2023/04/06 00:49:15;;;;;;;11.13;8.10;;;-2.00;99.90;;;;;;5053869;28;20016;-50
2023/04/06 00:51:41;;;;;;;12.32;7.72;;;-2.10;99.90;;;;;;5053125;28;20025;-54
2023/04/06 00:54:06;;;;;;;11.27;7.90;;;-2.10;99.90;;;;;;5053496;28;20423;-52
2023/04/06 00:56:32;;;;;;;11.25;8.50;;;-2.10;99.90;;;;;;5053677;28;20057;-53
2023/04/06 00:58:58;;;;;;;10.27;8.52;;;-2.10;99.90;;;;;;5052056;28;20124;-54
2023/04/06 01:01:25;;;;;;;19.23;8.23;;;-2.10;99.90;;;;;;5053588;28;20029;-56
2023/04/06 01:03:51;;;;;;;10.82;7.57;;;-2.20;99.90;;;;;;5053545;28;20025;-51
2023/04/06 01:06:17;;;;;;;11.88;8.00;;;-2.30;99.90;;;;;;5053245;28;20051;-54
2023/04/06 01:08:43;;;;;;;10.18;8.05;;;-2.30;99.90;;;;;;5053530;28;20028;-54
2023/04/06 01:11:08;;;;;;;14.52;8.95;;;-2.40;99.90;;;;;;5053673;28;20032;-53
2023/04/06 01:13:34;;;;;;;12.35;8.95;;;-2.60;99.90;;;;;;5053317;28;20045;-52
2023/04/06 01:16:00;;;;;;;13.80;8.93;;;-2.60;99.90;;;;;;5053513;28;20051;-55
2023/04/06 01:18:29;;;;;;;9.88;8.70;;;-2.60;99.90;;;;;;5053488;28;20431;-57
2023/04/06 01:20:55;;;;;;;13.25;8.27;;;-2.50;99.90;;;;;;5053419;28;20068;-55
2023/04/06 01:23:21;;;;;;;8.80;7.28;;;-2.50;99.90;;;;;;5053376;28;20032;-57
2023/04/06 01:25:47;;;;;;;11.93;8.10;;;-2.50;99.90;;;;;;5053406;28;20020;-53
2023/04/06 01:28:12;;;;;;;9.90;8.63;;;-2.50;99.90;;;;;;5052985;28;20423;-50
2023/04/06 01:30:38;;;;;;;10.93;7.10;;;-2.40;99.90;;;;;;5053324;28;20025;-51
2023/04/06 01:33:04;;;;;;;11.80;8.48;;;-2.40;99.90;;;;;;5052992;28;20108;-54
2023/04/06 01:35:30;;;;;;;10.82;8.23;;;-2.40;99.90;;;;;;5053220;28;20024;-53
2023/04/06 01:37:56;;;;;;;11.75;7.57;;;-2.40;99.90;;;;;;5053107;28;20053;-54
2023/04/06 01:40:22;;;;;;;14.05;7.55;;;-2.40;99.90;;;;;;5053164;28;20471;-54
2023/04/06 01:42:47;;;;;;;11.65;8.95;;;-2.40;99.90;;;;;;5053075;28;20029;-53
2023/04/06 01:45:13;;;;;;;11.95;8.13;;;-2.50;99.90;;;;;;5052995;28;20426;-57
2023/04/06 01:47:39;;;;;;;17.00;8.05;;;-2.50;99.90;;;;;;5052757;28;20029;-50
2023/04/06 01:50:06;;;;;;;15.00;9.15;;;-2.50;99.90;;;;;;5052748;28;20383;-51
2023/04/06 01:52:32;;;;;;;11.48;7.95;;;-2.50;99.90;;;;;;5053006;28;20021;-52
2023/04/06 01:54:58;;;;;;;11.32;8.63;;;-2.50;99.90;;;;;;5052469;28;20112;-52
2023/04/06 01:57:25;;;;;;;15.15;9.27;;;-2.50;99.90;;;;;;5052646;28;20159;-54
2023/04/06 01:59:51;;;;;;;12.07;8.52;;;-2.60;99.90;;;;;;5052841;28;20430;-53
2023/04/06 02:02:17;;;;;;;12.23;9.00;;;-2.60;99.90;;;;;;5051702;28;20024;-51
2023/04/06 02:04:43;;;;;;;9.73;8.30;;;-2.60;99.90;;;;;;5052309;28;20136;-51
2023/04/06 02:07:08;;;;;;;10.52;7.97;;;-2.60;99.90;;;;;;5052453;28;20108;-52
2023/04/06 02:09:34;;;;;;;12.10;8.30;;;-2.60;99.90;;;;;;5052652;28;20021;-51
2023/04/06 02:12:01;;;;;;;11.25;9.20;;;-2.70;99.90;;;;;;5052101;28;20060;-52
2023/04/06 02:14:27;;;;;;;14.00;7.90;;;-2.70;99.90;;;;;;5052550;28;20029;-52
2023/04/06 02:16:53;;;;;;;9.63;7.53;;;-2.70;99.90;;;;;;5052339;28;20033;-56
2023/04/06 02:19:18;;;;;;;13.10;9.13;;;-2.70;99.90;;;;;;5052334;28;20123;-55
2023/04/06 02:21:45;;;;;;;21.60;9.02;;;-2.70;99.90;;;;;;5052354;28;20024;-58
2023/04/06 02:24:10;;;;;;;16.52;8.82;;;-2.70;99.90;;;;;;5052319;28;20044;-53
2023/04/06 02:26:36;;;;;;;13.85;8.77;;;-2.80;99.90;;;;;;5052358;28;20025;-55
2023/04/06 02:29:02;;;;;;;14.82;8.50;;;-2.70;99.90;;;;;;5051858;28;20021;-55
2023/04/06 02:31:28;;;;;;;18.88;8.32;;;-2.80;99.90;;;;;;5051995;28;20022;-57
2023/04/06 02:33:53;;;;;;;13.32;8.55;;;-2.90;99.90;;;;;;5052152;28;20586;-51
2023/04/06 02:36:19;;;;;;;17.65;8.90;;;-3.00;99.90;;;;;;5050922;28;20083;-53
2023/04/06 02:38:45;;;;;;;12.30;8.73;;;-3.10;99.90;;;;;;5050773;28;20377;-57
2023/04/06 02:41:11;;;;;;;10.98;8.68;;;-3.00;1.00;;;;;;5050485;28;20098;-54
2023/04/06 02:43:36;;;;;;;12.77;9.25;;;-3.00;1.00;;;;;;5051912;28;20024;-50
2023/04/06 02:46:14;;;;;;;17.50;8.68;;;-3.00;1.00;;;;;;5051601;28;20408;-50
2023/04/06 02:48:40;;;;;;;11.05;8.93;;;-3.00;1.00;;;;;;5051814;28;20029;-53
2023/04/06 02:51:06;;;;;;;19.40;7.95;;;-3.00;1.00;;;;;;5051944;28;20021;-52
2023/04/06 02:53:32;;;;;;;14.73;8.68;;;-3.00;1.20;;;;;;5051727;28;20448;-51
2023/04/06 02:55:57;;;;;;;12.57;8.55;;;-3.00;1.00;;;;;;5051525;28;20423;-50
2023/04/06 02:58:23;;;;;;;11.18;9.00;;;-3.00;1.00;;;;;;5051460;28;20025;-56
2023/04/06 03:00:49;;;;;;;11.52;8.93;;;-3.00;1.00;;;;;;5051400;28;20025;-53
2023/04/06 03:03:15;;;;;;;11.23;8.27;;;-3.10;1.00;;;;;;5051196;28;20032;-51
2023/04/06 03:05:40;;;;;;;15.40;8.23;;;-3.00;1.00;;;;;;5051534;28;20408;-54
2023/04/06 03:08:06;;;;;;;15.23;8.20;;;-3.00;15.50;;;;;;5051341;28;20525;-51
2023/04/06 03:10:32;;;;;;;18.77;8.98;;;-3.10;93.60;;;;;;5051723;28;20461;-53
2023/04/06 03:12:57;;;;;;;12.35;9.10;;;-3.20;41.50;;;;;;5051321;28;20068;-56
2023/04/06 03:15:23;;;;;;;16.95;9.27;;;-3.30;48.80;;;;;;5049826;28;20074;-51
2023/04/06 03:17:49;;;;;;;11.38;8.60;;;-3.20;1.00;;;;;;5051509;28;20469;-50
2023/04/06 03:20:15;;;;;;;16.85;9.15;;;-3.20;99.90;;;;;;5051171;28;20029;-52
2023/04/06 03:22:40;;;;;;;13.93;8.63;;;-3.20;99.90;;;;;;5051183;28;20691;-52
2023/04/06 03:25:06;;;;;;;17.20;8.90;;;-3.30;99.90;;;;;;5051296;28;20072;-50
2023/04/06 03:27:32;;;;;;;11.48;9.18;;;-3.20;99.90;;;;;;5051475;28;20025;-52
2023/04/06 03:29:58;;;;;;;15.35;9.07;;;-3.20;99.90;;;;;;5051145;28;20039;-55
2023/04/06 03:32:24;;;;;;;11.40;9.05;;;-3.20;99.90;;;;;;5049941;28;20371;-53
2023/04/06 03:34:50;;;;;;;13.15;9.00;;;-3.30;99.90;;;;;;5051376;28;20487;-51
2023/04/06 03:37:15;;;;;;;11.95;8.80;;;-3.40;99.90;;;;;;5051007;28;20029;-53
2023/04/06 03:39:41;;;;;;;14.07;9.13;;;-3.40;99.90;;;;;;5051315;28;20020;-56
2023/04/06 03:42:07;;;;;;;16.38;10.38;;;-3.50;99.90;;;;;;5051164;28;20032;-54
2023/04/06 03:44:32;;;;;;;10.93;9.00;;;-3.40;99.90;;;;;;5051275;28;20052;-52
2023/04/06 03:46:58;;;;;;;9.90;8.55;;;-3.40;99.90;;;;;;5049327;28;20486;-54
2023/04/06 03:49:24;;;;;;;10.75;8.50;;;-3.40;99.90;;;;;;5049634;28;20479;-53
2023/04/06 03:51:50;;;;;;;15.77;9.52;;;-3.40;99.90;;;;;;5051020;28;20017;-53
2023/04/06 03:54:15;;;;;;;14.65;10.07;;;-3.30;99.90;;;;;;5050982;28;20075;-56
2023/04/06 03:56:41;;;;;;;15.20;10.65;;;-3.40;99.90;;;;;;5051203;28;20024;-55
2023/04/06 03:59:07;;;;;;;22.40;11.38;;;-3.30;99.90;;;;;;5051002;28;20461;-53
2023/04/06 04:01:32;;;;;;;16.63;10.35;;;-3.40;99.90;;;;;;5050947;28;20055;-52
2023/04/06 04:03:58;;;;;;;23.13;10.77;;;-3.40;99.90;;;;;;5050807;28;20025;-54
2023/04/06 04:06:24;;;;;;;14.82;10.85;;;-3.40;99.90;;;;;;5051039;28;20477;-52
2023/04/06 04:08:50;;;;;;;13.73;10.35;;;-3.50;99.90;;;;;;5050944;28;20333;-52
2023/04/06 04:11:16;;;;;;;14.80;10.52;;;-3.40;99.90;;;;;;5049738;28;20025;-52
2023/04/06 04:13:42;;;;;;;15.75;9.93;;;-3.50;99.90;;;;;;5050673;28;20045;-51
2023/04/06 04:16:08;;;;;;;20.65;10.27;;;-3.40;99.90;;;;;;5050669;28;20100;-56
2023/04/06 04:18:33;;;;;;;12.23;9.73;;;-3.50;99.90;;;;;;5050819;28;20040;-48
2023/04/06 04:20:59;;;;;;;13.10;9.80;;;-3.50;99.90;;;;;;5050482;28;20041;-55
2023/04/06 04:23:25;;;;;;;15.55;9.35;;;-3.40;99.90;;;;;;5050762;28;20029;-53
2023/04/06 04:25:51;;;;;;;19.92;8.52;;;-3.50;99.90;;;;;;5051324;28;20029;-54
2023/04/06 04:28:16;;;;;;;12.52;9.85;;;-3.50;99.90;;;;;;5054258;28;20135;-57
2023/04/06 04:30:42;;;;;;;10.77;8.13;;;-3.60;99.90;;;;;;5054312;28;20532;-54
2023/04/06 04:33:08;;;;;;;12.48;8.80;;;-3.60;99.90;;;;;;5052834;28;20021;-54
2023/04/06 04:35:33;;;;;;;10.75;8.55;;;-3.70;99.90;;;;;;5054400;28;20380;-53
2023/04/06 04:37:59;;;;;;;10.65;8.15;;;-3.70;99.90;;;;;;5053714;28;20032;-58
2023/04/06 04:40:25;;;;;;;11.07;9.73;;;-3.70;99.90;;;;;;5054073;28;20036;-53
2023/04/06 04:42:53;;;;;;;13.55;10.10;;;-3.60;99.90;;;;;;5053075;28;20383;-54
2023/04/06 04:45:19;;;;;;;16.33;9.65;;;-3.50;99.90;;;;;;5053521;28;20028;-57
2023/04/06 04:47:44;;;;;;;19.50;9.55;;;-3.50;99.90;;;;;;5053186;28;20029;-55
2023/04/06 04:50:10;;;;;;;29.92;9.75;;;-3.50;99.90;;;;;;5053849;28;20104;-55
2023/04/06 04:52:37;;;;;;;18.65;9.27;;;-3.40;99.90;;;;;;5054019;28;20033;-53
2023/04/06 04:55:03;;;;;;;13.32;8.63;;;-3.40;99.90;;;;;;5053547;28;20025;-51
2023/04/06 04:57:29;;;;;;;17.42;9.52;;;-3.40;99.90;;;;;;5052615;28;20032;-57
2023/04/06 04:59:55;;;;;;;11.95;9.77;;;-3.30;99.90;;;;;;5053613;28;20035;-52
2023/04/06 05:02:20;;;;;;;12.45;9.95;;;-3.30;99.90;;;;;;5053800;28;20045;-53
2023/04/06 05:04:46;;;;;;;16.38;8.98;;;-3.30;99.90;;;;;;5053742;28;20063;-53
2023/04/06 05:07:12;;;;;;;15.73;10.15;;;-3.30;99.90;;;;;;5053180;28;20037;-52
2023/04/06 05:09:37;;;;;;;13.68;9.27;;;-3.30;99.90;;;;;;5053069;28;20021;-53
2023/04/06 05:12:03;;;;;;;11.02;9.63;;;-3.30;99.90;;;;;;5052857;28;20407;-54
2023/04/06 05:14:29;;;;;;;14.43;9.48;;;-3.20;99.90;;;;;;5052068;28;20056;-53
2023/04/06 05:16:55;;;;;;;14.45;8.98;;;-3.10;99.90;;;;;;5052049;28;20029;-52
2023/04/06 05:19:21;;;;;;;14.20;9.45;;;-3.10;99.90;;;;;;5053255;28;20510;-52
2023/04/06 05:21:46;;;;;;;15.23;10.10;;;-3.00;99.90;;;;;;5053058;28;20032;-55
2023/04/06 05:24:12;;;;;;;14.00;9.20;;;-2.90;99.90;;;;;;5052959;28;20036;-52
2023/04/06 05:26:38;;;;;;;15.65;10.80;;;-2.80;99.90;;;;;;5053025;28;20025;-52
2023/04/06 05:29:04;;;;;;;21.30;12.25;;;-2.80;99.90;;;;;;5052843;28;20074;-54
2023/04/06 05:31:30;;;;;;;16.92;12.60;;;-2.70;99.90;;;;;;5053587;28;20414;-55
2023/04/06 05:33:57;;;;;;;15.20;9.32;;;-2.60;99.90;;;;;;5052438;28;20021;-61
2023/04/06 05:36:22;;;;;;;15.20;9.55;;;-2.40;99.90;;;;;;5052160;28;20009;-56
2023/04/06 05:38:50;;;;;;;11.10;8.45;;;-2.30;99.90;;;;;;5051446;28;20032;-59
2023/04/06 05:41:15;;;;;;;11.38;8.38;;;-2.20;99.90;;;;;;5051229;28;20111;-58
2023/04/06 05:43:41;;;;;;;15.15;8.27;;;-2.20;99.90;;;;;;5052125;28;20174;-60
2023/04/06 05:46:07;;;;;;;9.20;8.20;;;-2.20;99.90;;;;;;5052597;28;20512;-52
2023/04/06 05:48:33;;;;;;;13.70;9.23;;;-2.10;99.90;;;;;;5052520;28;20029;-54
2023/04/06 05:50:59;;;;;;;12.02;8.82;;;-2.10;99.90;;;;;;5052641;28;20155;-55
2023/04/06 05:53:26;;;;;;;12.88;9.32;;;-2.00;99.90;;;;;;5052572;28;20448;-59
2023/04/06 05:55:52;;;;;;;11.57;9.43;;;-2.00;99.90;;;;;;5051282;28;20028;-59
2023/04/06 05:58:17;;;;;;;14.68;8.88;;;-1.90;99.90;;;;;;5052223;28;20021;-57
2023/04/06 06:00:45;;;;;;;12.75;9.35;;;-1.80;99.90;;;;;;5052319;28;20032;-59
2023/04/06 06:03:12;;;;;;;14.68;8.43;;;-1.60;99.90;;;;;;5052228;28;20056;-57
2023/04/06 06:05:37;;;;;;;12.77;8.63;;;-1.40;99.90;;;;;;5051015;28;20033;-58
2023/04/06 06:08:03;;;;;;;11.40;9.90;;;-1.30;99.90;;;;;;5052097;28;20037;-59
2023/04/06 06:10:29;;;;;;;10.80;8.57;;;-1.10;99.90;;;;;;5052277;28;20048;-59
2023/04/06 06:12:55;;;;;;;15.82;10.00;;;-0.90;99.90;;;;;;5051904;28;20383;-57
2023/04/06 06:15:21;;;;;;;12.30;9.68;;;-0.90;99.90;;;;;;5051821;28;20024;-56
2023/04/06 06:17:46;;;;;;;11.30;8.52;;;-0.80;99.90;;;;;;5051434;28;20500;-57
2023/04/06 06:20:12;;;;;;;12.90;9.40;;;-0.70;99.90;;;;;;5051214;28;20682;-54
2023/04/06 06:22:39;;;;;;;25.50;10.30;;;-0.70;99.90;;;;;;5052539;28;20139;-53
2023/04/06 06:25:05;;;;;;;13.95;10.07;;;-0.60;99.90;;;;;;5050456;28;20036;-55
2023/04/06 06:27:31;;;;;;;14.65;9.70;;;-0.40;99.90;;;;;;5050420;28;20029;-55
2023/04/06 06:29:57;;;;;;;15.27;10.27;;;-0.20;99.90;;;;;;5051707;28;20106;-56
2023/04/06 06:32:22;;;;;;;12.40;9.30;;;-0.10;99.90;;;;;;5049706;28;20021;-51
2023/04/06 06:34:48;;;;;;;17.88;9.73;;;0.00;99.90;;;;;;5050770;28;20024;-52
2023/04/06 06:37:14;;;;;;;17.13;9.43;;;0.10;99.90;;;;;;5051055;28;20025;-55
2023/04/06 06:39:40;;;;;;;12.98;9.75;;;0.20;99.90;;;;;;5051389;28;20388;-56
2023/04/06 06:42:05;;;;;;;10.98;8.07;;;0.40;99.90;;;;;;5051787;28;20025;-53
2023/04/06 06:44:31;;;;;;;10.75;8.95;;;0.50;99.90;;;;;;5051305;28;20029;-52
2023/04/06 06:46:57;;;;;;;17.52;8.75;;;0.70;99.90;;;;;;5049986;28;20033;-55
2023/04/06 06:49:22;;;;;;;17.73;9.32;;;0.90;99.90;;;;;;5049800;28;20055;-57
2023/04/06 06:51:48;;;;;;;13.60;8.43;;;1.10;99.90;;;;;;5050681;28;20048;-56
2023/04/06 06:54:14;;;;;;;11.50;8.63;;;1.30;99.90;;;;;;5050820;28;20446;-55
2023/04/06 06:56:40;;;;;;;13.88;9.07;;;1.50;99.90;;;;;;5051003;28;20025;-55
2023/04/06 06:59:06;;;;;;;15.65;9.25;;;1.60;99.90;;;;;;5050880;28;20135;-51
2023/04/06 07:01:36;;;;;;;12.93;8.07;;;1.80;99.90;;;;;;5050822;28;20504;-54
2023/04/06 07:04:02;;;;;;;12.63;8.27;;;1.90;99.90;;;;;;5050724;28;20025;-55
2023/04/06 07:06:28;;;;;;;12.60;7.93;;;2.00;99.90;;;;;;5050618;28;20036;-56
2023/04/06 07:08:53;;;;;;;10.77;8.20;;;2.20;99.80;;;;;;5051243;28;20106;-52
2023/04/06 07:11:19;;;;;;;9.10;7.57;;;2.20;99.00;;;;;;5051503;28;20021;-53
2023/04/06 07:13:45;;;;;;;10.52;7.57;;;2.30;99.00;;;;;;5051289;28;20055;-59
2023/04/06 07:16:10;;;;;;;11.07;7.57;;;2.40;99.10;;;;;;5051232;28;20174;-56
2023/04/06 07:18:36;;;;;;;10.35;7.68;;;2.40;98.50;;;;;;5051319;28;20131;-57
2023/04/06 07:21:02;;;;;;;10.05;7.22;;;2.60;98.50;;;;;;5051075;28;20025;-57
2023/04/06 07:23:27;;;;;;;10.55;6.80;;;2.80;97.30;;;;;;5051044;28;20025;-57
2023/04/06 07:25:56;;;;;;;9.95;7.05;;;3.00;96.60;;;;;;5051151;28;20021;-56
2023/04/06 07:28:22;;;;;;;12.27;7.57;;;3.10;95.40;;;;;;5051082;28;20484;-53
2023/04/06 07:30:47;;;;;;;10.30;7.55;;;3.20;95.60;;;;;;5051305;28;20127;-54
2023/04/06 07:33:13;;;;;;;18.15;9.07;;;3.30;96.00;;;;;;5051142;28;20025;-55
2023/04/06 07:35:39;;;;;;;8.68;6.95;;;3.40;94.60;;;;;;5051138;28;20066;-52
2023/04/06 07:38:05;;;;;;;14.30;7.45;;;3.50;94.60;;;;;;5051207;28;20025;-52
2023/04/06 07:40:32;;;;;;;11.25;7.60;;;3.70;94.30;;;;;;5050745;28;20032;-52
2023/04/06 07:42:58;;;;;;;13.55;7.53;;;3.80;93.50;;;;;;5050444;28;20288;-52
2023/04/06 07:45:23;;;;;;;8.38;7.45;;;3.90;93.50;;;;;;5050975;28;20365;-53
2023/04/06 07:47:49;;;;;;;9.13;6.53;;;3.90;93.60;;;;;;5050793;28;20425;-57
2023/04/06 07:50:15;;;;;;;9.68;6.65;;;4.10;93.90;;;;;;5050800;28;20099;-55
2023/04/06 07:52:41;;;;;;;14.93;7.63;;;4.10;92.70;;;;;;5050769;28;20361;-51
2023/04/06 07:55:07;;;;;;;9.88;7.07;;;4.30;93.00;;;;;;5050748;28;20424;-54
2023/04/06 07:57:33;;;;;;;11.20;7.03;;;4.30;92.30;;;;;;5050869;28;20059;-60
2023/04/06 07:59:59;;;;;;;14.98;6.07;;;4.50;91.40;;;;;;5050988;28;20384;-52
2023/04/06 08:02:24;;;;;;;9.30;6.05;;;4.50;90.80;;;;;;5053349;28;20409;-56
2023/04/06 08:04:50;;;;;;;10.02;6.50;;;4.70;90.00;;;;;;5054878;28;20460;-55
2023/04/06 08:07:16;;;;;;;10.93;5.97;;;4.90;89.20;;;;;;5054487;28;20472;-59
2023/04/06 08:09:41;;;;;;;10.38;6.70;;;5.00;86.60;;;;;;5054881;28;20103;-57
2023/04/06 08:12:07;;;;;;;9.50;6.35;;;5.10;86.60;;;;;;5054193;28;20025;-59
2023/04/06 08:14:33;;;;;;;12.30;7.35;;;5.20;87.20;;;;;;5054665;28;20028;-52
2023/04/06 08:16:58;;;;;;;9.95;6.50;;;5.30;85.10;;;;;;5054450;28;20040;-55
2023/04/06 08:19:24;;;;;;;202.98;131.43;;;5.30;82.40;;;;;;5054386;28;20017;-58
2023/04/06 08:21:51;;;;;;;26.65;20.35;;;5.30;83.60;;;;;;5054170;28;20089;-55
2023/04/06 08:24:16;;;;;;;11.20;6.93;;;5.50;82.70;;;;;;5053735;28;20044;-56
2023/04/06 08:26:42;;;;;;;12.60;7.05;;;5.70;80.00;;;;;;5054203;28;20527;-57
2023/04/06 08:29:08;;;;;;;12.05;6.43;;;5.80;81.60;;;;;;5053022;28;20021;-55
2023/04/06 08:31:34;;;;;;;10.77;6.43;;;6.10;80.10;;;;;;5054517;28;20135;-54
2023/04/06 08:34:01;;;;;;;7.80;5.68;;;6.00;74.70;;;;;;5054341;28;20473;-57
2023/04/06 08:36:27;;;;;;;9.93;6.38;;;6.30;73.10;;;;;;5054478;28;20021;-57
2023/04/06 08:38:53;;;;;;;9.65;5.60;;;6.40;73.30;;;;;;5054255;28;20337;-58
2023/04/06 08:41:19;;;;;;;10.73;6.38;;;6.40;79.40;;;;;;5053380;28;20065;-56
2023/04/06 08:43:59;;;;;;;10.85;6.45;;;6.70;70.10;;;;;;5053888;28;20476;-58
2023/04/06 08:46:29;;;;;;;9.60;5.53;;;6.50;64.70;;;;;;5053446;28;20244;-56
2023/04/06 08:48:59;;;;;;;9.10;6.18;;;6.40;65.40;;;;;;5053854;28;20017;-58
2023/04/06 08:51:26;;;;;;;8.93;5.63;;;6.60;65.90;;;;;;5052758;28;20024;-57
2023/04/06 08:53:56;;;;;;;9.40;5.95;;;6.80;68.90;;;;;;5053279;28;20521;-57
2023/04/06 08:56:23;;;;;;;10.90;6.47;;;7.10;66.80;;;;;;5053131;28;20338;-56
2023/04/06 08:58:49;;;;;;;6.68;5.80;;;7.40;65.60;;;;;;5053464;28;20029;-54
2023/04/06 09:01:20;;;;;;;10.95;5.72;;;7.50;63.90;;;;;;5053145;28;20021;-53
2023/04/06 09:03:48;;;;;;;10.75;5.88;;;7.50;63.30;;;;;;5052956;28;20067;-50
2023/04/06 09:06:14;;;;;;;11.02;6.00;;;7.50;62.70;;;;;;5053134;28;20029;-54
2023/04/06 09:08:41;;;;;;;14.02;6.05;;;7.60;65.70;;;;;;5053478;28;20052;-54
2023/04/06 09:11:07;;;;;;;12.63;5.50;;;7.90;63.30;;;;;;5052924;28;20024;-56
2023/04/06 09:13:45;;;;;;;11.07;6.43;;;7.90;60.40;;;;;;5052567;28;20037;-53
2023/04/06 09:16:11;;;;;;;12.65;5.53;;;8.00;62.90;;;;;;5052850;28;20480;-54
2023/04/06 09:18:37;;;;;;;8.63;4.57;;;8.20;61.30;;;;;;5053036;28;20040;-54
2023/04/06 09:21:05;;;;;;;5.63;4.68;;;7.90;57.70;;;;;;5052874;28;20028;-56
2023/04/06 09:23:31;;;;;;;6.97;5.13;;;8.10;58.60;;;;;;5053340;28;20044;-53
2023/04/06 09:26:17;;;;;;;11.40;5.35;;;8.20;60.40;;;;;;5053274;28;20023;-56
2023/04/06 09:28:55;;;;;;;5.97;5.28;;;8.60;60.00;;;;;;5053396;28;20117;-56
2023/04/06 09:31:32;;;;;;;7.30;5.13;;;9.10;56.70;;;;;;5052925;28;20529;-57
2023/04/06 09:34:00;;;;;;;7.45;5.30;;;9.20;59.40;;;;;;5053203;28;20017;-54
2023/04/06 09:36:32;;;;;;;10.43;6.13;;;9.30;54.00;;;;;;5052993;28;20036;-52
2023/04/06 09:39:01;;;;;;;9.35;5.93;;;9.20;54.10;;;;;;5051460;28;20059;-52
2023/04/06 09:41:32;;;;;;;6.97;5.25;;;8.90;54.50;;;;;;5053182;28;20052;-54
2023/04/06 09:44:05;;;;;;;8.10;5.88;;;9.30;53.30;;;;;;5052628;28;20040;-55
2023/04/06 09:46:39;;;;;;;8.32;5.93;;;9.80;56.10;;;;;;5052628;28;20020;-50
2023/04/06 09:49:06;;;;;;;10.98;5.13;;;10.00;51.70;;;;;;5052716;28;20082;-54
2023/04/06 09:51:36;;;;;;;8.13;4.90;;;10.20;53.80;;;;;;5052895;28;20108;-57
2023/04/06 09:54:04;;;;;;;9.45;6.38;;;10.00;51.20;;;;;;5052827;28;20025;-56
2023/04/06 09:57:06;;;;;;;9.85;6.10;;;10.30;58.20;;;;;;5052702;28;20021;-55
2023/04/06 09:59:45;;;;;;;7.15;5.28;;;10.40;58.60;;;;;;5052699;28;20614;-53
2023/04/06 10:02:34;;;;;;;11.70;8.02;;;9.80;54.90;;;;;;5052087;28;20032;-58
2023/04/06 10:05:09;;;;;;;8.85;6.22;;;9.30;56.10;;;;;;5051820;28;20360;-58
2023/04/06 10:07:36;;;;;;;9.52;5.75;;;9.00;58.00;;;;;;5051995;28;20082;-57
2023/04/06 10:10:03;;;;;;;9.52;5.75;;;8.70;57.60;;;;;;5051497;28;20023;-57
2023/04/06 10:12:29;;;;;;;7.88;5.75;;;8.60;57.80;;;;;;5051962;28;20075;-57
2023/04/06 10:14:56;;;;;;;14.35;6.78;;;8.70;58.40;;;;;;5051779;28;20392;-57
2023/04/06 10:17:24;;;;;;;14.60;6.57;;;8.70;58.10;;;;;;5051918;28;20414;-59
2023/04/06 10:20:00;;;;;;;8.10;5.90;;;9.30;58.20;;;;;;5051955;28;20060;-56
2023/04/06 10:23:07;;;;;;;14.63;6.32;;;9.90;56.80;;;;;;5051937;28;20020;-57
2023/04/06 10:25:33;;;;;;;14.57;5.97;;;10.20;56.40;;;;;;5050660;28;20032;-55
2023/04/06 10:28:07;;;;;;;11.65;5.88;;;11.00;58.60;;;;;;5051714;28;20033;-56
2023/04/06 10:30:34;;;;;;;10.60;6.70;;;11.70;54.90;;;;;;5052289;28;20025;-52
2023/04/06 10:32:59;;;;;;;20.20;5.97;;;11.90;53.50;;;;;;5051579;28;20025;-58
2023/04/06 10:35:37;;;;;;;8.25;5.75;;;11.70;51.00;;;;;;5051915;28;20018;-57
2023/04/06 10:38:05;;;;;;;8.25;5.40;;;11.90;47.40;;;;;;5052225;28;20451;-54
2023/04/06 10:40:34;;;;;;;5.90;4.75;;;11.50;45.40;;;;;;5052076;28;20013;-57
2023/04/06 10:43:13;;;;;;;9.70;5.25;;;11.90;47.50;;;;;;5052056;28;20074;-56
2023/04/06 10:45:40;;;;;;;7.63;4.85;;;12.60;49.90;;;;;;5051899;28;20724;-53
2023/04/06 10:48:18;;;;;;;9.82;5.57;;;12.30;47.40;;;;;;5051654;28;20032;-56
2023/04/06 10:50:47;;;;;;;9.05;6.00;;;11.70;48.70;;;;;;5051318;28;20392;-56
2023/04/06 10:53:25;;;;;;;9.50;5.03;;;12.00;45.80;;;;;;5051197;28;20256;-57
2023/04/06 10:55:52;;;;;;;8.30;5.05;;;12.60;46.10;;;;;;5051519;28;20029;-57
2023/04/06 10:58:19;;;;;;;15.30;5.00;;;11.70;45.00;;;;;;5050338;28;20029;-54
2023/04/06 11:00:48;;;;;;;10.30;4.88;;;11.10;48.70;;;;;;5051579;28;20025;-54
2023/04/06 11:03:15;;;;;;;7.82;5.43;;;10.90;46.50;;;;;;5051177;28;20032;-53
2023/04/06 11:05:48;;;;;;;11.75;7.28;;;10.90;48.10;;;;;;5051352;28;20025;-54
2023/04/06 11:08:32;;;;;;;10.30;5.27;;;11.10;48.10;;;;;;5051167;28;20372;-58
2023/04/06 11:11:05;;;;;;;7.80;5.40;;;10.80;47.60;;;;;;5051094;28;20264;-51
2023/04/06 11:13:41;;;;;;;8.73;4.82;;;11.10;47.90;;;;;;5051016;28;20421;-56
2023/04/06 11:16:07;;;;;;;7.25;5.57;;;11.70;48.00;;;;;;5050962;28;20334;-55
2023/04/06 11:18:32;;;;;;;7.75;4.47;;;12.60;44.90;;;;;;5051359;28;20032;-58
2023/04/06 11:20:58;;;;;;;7.53;4.82;;;14.60;45.30;;;;;;5051038;28;20376;-55
2023/04/06 11:23:25;;;;;;;7.50;5.00;;;15.80;41.10;;;;;;5051427;28;20048;-57
2023/04/06 11:25:54;;;;;;;7.00;5.25;;;17.10;37.70;;;;;;5051454;28;20032;-58
2023/04/06 11:28:20;;;;;;;6.85;5.25;;;16.50;36.20;;;;;;5051162;28;20039;-58
2023/04/06 11:30:47;;;;;;;9.88;4.28;;;17.20;37.00;;;;;;5051435;28;20410;-58
2023/04/06 11:33:21;;;;;;;9.30;4.88;;;16.60;37.00;;;;;;5051231;28;20520;-58
2023/04/06 11:35:47;;;;;;;6.43;4.75;;;17.00;34.70;;;;;;5053416;28;20025;-59
2023/04/06 11:38:12;;;;;;;12.95;6.40;;;16.80;34.90;;;;;;5055307;28;20033;-58
2023/04/06 11:40:38;;;;;;;6.72;5.18;;;16.10;35.80;;;;;;5055242;28;20028;-58
2023/04/06 11:43:06;;;;;;;7.57;3.95;;;16.70;39.30;;;;;;5055024;28;20360;-58
2023/04/06 11:45:42;;;;;;;5.97;4.22;;;19.60;33.30;;;;;;5055372;28;20048;-58
2023/04/06 11:48:19;;;;;;;5.03;3.83;;;19.20;31.10;;;;;;5054898;28;20017;-58
2023/04/06 11:50:47;;;;;;;5.00;3.35;;;20.10;34.10;;;;;;5055072;28;20025;-59
2023/04/06 11:53:13;;;;;;;8.68;3.90;;;21.20;30.90;;;;;;5053467;28;20024;-59
2023/04/06 11:55:39;;;;;;;5.72;4.43;;;20.80;31.90;;;;;;5055020;28;20372;-59
2023/04/06 11:58:04;;;;;;;8.20;4.05;;;20.00;32.10;;;;;;5054868;28;20075;-59
2023/04/06 12:00:34;;;;;;;6.50;3.85;;;19.60;29.60;;;;;;5054926;28;20074;-59
2023/04/06 12:03:00;;;;;;;14.23;5.45;;;16.90;31.30;;;;;;5054593;28;20065;-58
2023/04/06 12:05:26;;;;;;;8.35;4.15;;;16.40;34.90;;;;;;5054689;28;20040;-58
2023/04/06 12:07:51;;;;;;;6.88;4.47;;;16.70;35.50;;;;;;5054154;28;20025;-57
2023/04/06 12:10:17;;;;;;;6.53;4.40;;;16.00;34.00;;;;;;5054095;28;20112;-58
2023/04/06 12:12:43;;;;;;;11.80;4.53;;;15.30;35.40;;;;;;5053777;28;20079;-52
2023/04/06 12:15:09;;;;;;;5.82;4.10;;;14.70;36.40;;;;;;5054030;28;20029;-58
2023/04/06 12:17:35;;;;;;;9.80;4.43;;;15.20;35.20;;;;;;5052659;28;20036;-55
2023/04/06 12:20:01;;;;;;;6.40;3.58;;;16.10;35.70;;;;;;5053808;28;20516;-55
2023/04/06 12:22:26;;;;;;;7.55;4.63;;;17.60;33.40;;;;;;5053770;28;20028;-59
2023/04/06 12:24:52;;;;;;;14.07;8.52;;;19.00;32.10;;;;;;5053918;28;20082;-57
2023/04/06 12:27:18;;;;;;;11.20;4.45;;;19.10;34.10;;;;;;5054034;28;20374;-58
2023/04/06 12:29:43;;;;;;;28.38;15.45;;;20.30;29.50;;;;;;5052847;28;20017;-57
2023/04/06 12:32:09;;;;;;;5.78;3.40;;;20.90;28.80;;;;;;5053765;28;20025;-56
2023/04/06 12:34:35;;;;;;;8.15;3.90;;;19.60;31.00;;;;;;5054278;28;20024;-57
2023/04/06 12:37:01;;;;;;;6.70;4.75;;;19.20;31.00;;;;;;5053608;28;20423;-58
2023/04/06 12:39:27;;;;;;;8.07;3.80;;;20.20;31.10;;;;;;5054255;28;20027;-54
2023/04/06 12:41:53;;;;;;;5.97;4.03;;;22.00;29.40;;;;;;5052828;28;20037;-57
2023/04/06 12:44:19;;;;;;;15.07;6.13;;;21.20;29.90;;;;;;5054205;28;20035;-57
2023/04/06 12:46:45;;;;;;;6.25;4.40;;;20.30;28.30;;;;;;5051776;28;20029;-56